Terminal Aerodrome Forecast
Issued by NWS Charleston, WV

Current Version | Previous Version | Text Only | Print | Product List | Glossary Off
Versions: 1 2 3 4 5 6 7 8 9 10 11 12 13 14 15 16 17 18 19 20 21 22 23 24 25 26 27 28 29 30

000
FTUS41 KRLX 201103 AAE
TAFEKN
TAF AMD
KEKN 201103Z 2011/2106 27005KT P6SM OVC025
      TEMPO 2011/2013 SCT030
     FM201300 27007KT P6SM SCT030
     FM201600 25005KT P6SM FEW250
     FM210500 19003KT P6SM FEW250=

USA.gov is the U.S. government's official web portal to all federal, state and local government web resources and services.